Time;durP1;ratioP1;P1;durP2;ratioP2;P2;SDS_P1;SDS_P2;PMS_P1;PMS_P2;Temp;Humidity;BMP_temperature;BMP_pressure;BME280_temperature;BME280_humidity;BME280_pressure;Samples;Min_cycle;Max_cycle;Signal;HPM_P1;HPM_P2
2021/12/30 00:00:49;;;;;;;30.63;7.15;;;;;;;;;;5070562;28;20085;-61
2021/12/30 00:03:15;;;;;;;34.35;6.75;;;;;;;;;;5074601;28;20430;-62
2021/12/30 00:05:42;;;;;;;22.38;6.57;;;;;;;;;;5074513;28;20128;-62
2021/12/30 00:08:08;;;;;;;27.77;6.95;;;8.70;99.90;;;;;;5063459;28;20447;-61
2021/12/30 00:10:34;;;;;;;34.10;6.78;;;;;;;;;;5070288;28;20098;-61
2021/12/30 00:13:00;;;;;;;35.03;7.68;;;;;;;;;;5054674;28;20033;-61
2021/12/30 00:15:26;;;;;;;38.78;8.27;;;;;;;;;;5054121;28;20048;-61
2021/12/30 00:17:52;;;;;;;33.63;7.60;;;;;;;;;;5055012;28;20047;-59
2021/12/30 00:20:19;;;;;;;32.05;8.18;;;;;;;;;;5054729;28;20068;-61
2021/12/30 00:22:46;;;;;;;27.58;7.07;;;;;;;;;;5054447;28;20392;-61
2021/12/30 00:25:12;;;;;;;35.13;7.45;;;;;;;;;;5047094;28;20563;-62
2021/12/30 00:27:38;;;;;;;31.15;7.53;;;;;;;;;;5064197;28;20088;-61
2021/12/30 00:30:07;;;;;;;28.58;8.57;;;8.60;99.90;;;;;;5074421;28;20032;-61
2021/12/30 00:32:33;;;;;;;30.42;7.00;;;;;;;;;;5074329;28;20049;-62
2021/12/30 00:34:59;;;;;;;41.72;9.35;;;;;;;;;;5074298;28;20044;-60
2021/12/30 00:37:25;;;;;;;35.63;9.18;;;8.60;99.90;;;;;;5073914;28;20044;-61
2021/12/30 00:39:51;;;;;;;27.48;6.63;;;8.60;99.90;;;;;;5074711;28;20040;-61
2021/12/30 00:42:17;;;;;;;35.50;7.80;;;8.50;99.90;;;;;;5073920;28;20074;-62
2021/12/30 00:44:43;;;;;;;48.17;9.40;;;;;;;;;;5074235;28;20041;-61
2021/12/30 00:47:08;;;;;;;39.45;7.95;;;8.40;99.90;;;;;;5073906;28;20498;-61
2021/12/30 00:49:34;;;;;;;36.60;7.82;;;;;;;;;;5074256;28;20069;-61
2021/12/30 00:52:00;;;;;;;32.22;7.55;;;;;;;;;;5074111;28;20101;-61
2021/12/30 00:54:27;;;;;;;33.80;7.97;;;;;;;;;;5073423;28;20041;-62
2021/12/30 00:56:53;;;;;;;30.98;8.68;;;;;;;;;;5072883;28;20123;-62
2021/12/30 00:59:19;;;;;;;34.95;8.10;;;;;;;;;;5073990;28;20077;-61
2021/12/30 01:01:45;;;;;;;26.60;7.90;;;;;;;;;;5074192;28;20036;-61
2021/12/30 01:04:11;;;;;;;37.58;8.40;;;;;;;;;;5073580;28;20110;-62
2021/12/30 01:06:37;;;;;;;35.25;8.65;;;;;;;;;;5072396;28;20047;-62
2021/12/30 01:09:04;;;;;;;44.30;8.80;;;;;;;;;;5073811;28;20036;-62
2021/12/30 01:11:30;;;;;;;29.50;8.07;;;;;;;;;;5073498;28;20674;-62
2021/12/30 01:14:10;;;;;;;33.88;6.68;;;;;;;;;;5073417;28;20033;-62
2021/12/30 01:16:42;;;;;;;41.72;10.25;;;;;;;;;;5073292;28;20067;-62
2021/12/30 01:21:48;;;;;;;36.88;8.50;;;7.90;99.90;;;;;;5073547;28;20099;-63
2021/12/30 01:24:14;;;;;;;33.17;7.75;;;;;;;;;;5073590;28;20124;-62
2021/12/30 01:26:40;;;;;;;41.85;8.98;;;8.10;99.90;;;;;;5072794;28;20045;-62
2021/12/30 01:29:06;;;;;;;37.72;8.65;;;8.10;99.90;;;;;;5073297;28;20037;-62
2021/12/30 01:31:31;;;;;;;27.30;8.60;;;8.00;99.90;;;;;;5073451;28;20123;-62
2021/12/30 01:36:27;;;;;;;37.40;9.02;;;;;;;;;;5065759;28;20105;-59
2021/12/30 01:38:53;;;;;;;34.90;9.00;;;;;;;;;;5051626;28;20115;-60
2021/12/30 01:41:21;;;;;;;36.08;8.55;;;;;;;;;;5051983;28;20415;-59
2021/12/30 01:43:47;;;;;;;33.88;9.10;;;;;;;;;;5052259;28;20037;-60
2021/12/30 01:46:13;;;;;;;29.70;7.38;;;;;;;;;;5050204;28;20487;-59
2021/12/30 01:48:39;;;;;;;34.40;7.28;;;7.90;99.90;;;;;;5053036;28;20072;-59
2021/12/30 01:51:06;;;;;;;39.58;7.22;;;;;;;;;;5052520;28;20033;-60
2021/12/30 01:53:32;;;;;;;25.45;6.78;;;;;;;;;;5052238;28;20051;-60
2021/12/30 01:55:58;;;;;;;33.47;6.78;;;8.00;99.90;;;;;;5052151;28;20503;-60
2021/12/30 01:58:24;;;;;;;34.08;8.55;;;8.00;99.90;;;;;;5050834;28;20037;-60
2021/12/30 02:00:51;;;;;;;30.65;6.93;;;7.90;99.90;;;;;;5052271;28;20450;-60
2021/12/30 02:03:18;;;;;;;37.25;8.90;;;;;;;;;;5051184;28;20770;-60
2021/12/30 02:05:44;;;;;;;33.10;6.70;;;;;;;;;;5051939;28;20127;-60
2021/12/30 02:08:13;;;;;;;35.35;7.82;;;;;;;;;;5052402;28;20041;-60
2021/12/30 02:10:42;;;;;;;26.33;7.70;;;7.90;99.90;;;;;;5052139;28;20048;-60
2021/12/30 02:13:08;;;;;;;26.30;6.97;;;;;;;;;;5051948;28;20609;-60
2021/12/30 02:15:34;;;;;;;31.48;7.72;;;;;;;;;;5051837;28;20090;-60
2021/12/30 02:18:02;;;;;;;39.97;7.90;;;;;;;;;;5050601;28;20064;-59
2021/12/30 02:20:53;;;;;;;30.25;7.75;;;8.00;99.90;;;;;;5051738;28;20048;-60
2021/12/30 02:23:22;;;;;;;30.67;6.65;;;;;;;;;;5052300;28;20087;-60
2021/12/30 02:25:49;;;;;;;36.13;8.77;;;;;;;;;;5050220;28;20483;-60
2021/12/30 02:28:16;;;;;;;28.48;6.95;;;;;;;;;;5057122;28;20047;-60
2021/12/30 02:30:43;;;;;;;28.73;6.03;;;;;;;;;;5059291;28;20041;-60
2021/12/30 02:33:09;;;;;;;30.92;7.60;;;;;;;;;;5066373;28;20036;-60
2021/12/30 02:35:36;;;;;;;26.10;6.05;;;;;;;;;;5041635;28;20042;-59
2021/12/30 02:38:02;;;;;;;32.67;7.82;;;;;;;;;;5063225;28;20085;-59
2021/12/30 02:40:32;;;;;;;22.33;6.47;;;;;;;;;;5071849;28;20040;-60
2021/12/30 02:42:58;;;;;;;31.42;6.80;;;;;;;;;;5071621;28;20115;-60
2021/12/30 02:45:24;;;;;;;35.50;8.20;;;;;;;;;;5071456;28;20045;-60
2021/12/30 02:47:50;;;;;;;30.33;7.75;;;;;;;;;;5071686;28;20044;-60
2021/12/30 02:50:16;;;;;;;36.50;7.70;;;;;;;;;;5071825;28;20037;-59
2021/12/30 02:52:42;;;;;;;31.08;7.65;;;;;;;;;;5070186;28;20083;-59
2021/12/30 02:55:08;;;;;;;41.63;8.60;;;8.20;99.90;;;;;;5070926;28;20564;-59
2021/12/30 02:57:34;;;;;;;40.55;8.82;;;;;;;;;;5071588;28;20037;-59
2021/12/30 03:00:00;;;;;;;35.53;7.50;;;;;;;;;;5071223;28;20045;-59
2021/12/30 03:02:26;;;;;;;34.13;7.13;;;8.20;99.90;;;;;;5071724;28;20048;-58
2021/12/30 03:04:52;;;;;;;36.58;8.45;;;;;;;;;;5070541;28;20072;-59
2021/12/30 03:07:18;;;;;;;27.38;8.38;;;;;;;;;;5071330;28;20070;-58
2021/12/30 03:09:47;;;;;;;36.85;8.63;;;;;;;;;;5071229;28;20036;-59
2021/12/30 03:12:13;;;;;;;39.42;7.88;;;;;;;;;;5071071;28;20113;-59
2021/12/30 03:14:40;;;;;;;43.80;8.35;;;;;;;;;;5071149;28;20054;-59
2021/12/30 03:17:06;;;;;;;43.47;9.18;;;;;;;;;;5069984;28;20036;-58
2021/12/30 03:19:33;;;;;;;42.03;8.82;;;;;;;;;;5071454;28;20052;-59
2021/12/30 03:21:59;;;;;;;40.47;9.05;;;;;;;;;;5070697;28;20048;-58
2021/12/30 03:24:25;;;;;;;43.45;9.35;;;;;;;;;;5070108;28;20044;-58
2021/12/30 03:26:51;;;;;;;46.13;10.65;;;;;;;;;;5070517;28;20426;-59
2021/12/30 03:29:17;;;;;;;45.90;9.07;;;;;;;;;;5070492;28;20049;-58
2021/12/30 03:31:43;;;;;;;34.90;9.05;;;;;;;;;;5071066;28;20033;-59
2021/12/30 03:34:09;;;;;;;36.75;10.05;;;;;;;;;;5070691;28;20037;-60
2021/12/30 03:36:37;;;;;;;46.10;10.73;;;;;;;;;;5069223;28;20075;-59
2021/12/30 03:39:03;;;;;;;40.60;9.60;;;;;;;;;;5070861;28;20059;-60
2021/12/30 03:41:29;;;;;;;50.55;10.63;;;;;;;;;;5071162;28;20716;-60
2021/12/30 03:44:00;;;;;;;49.17;9.70;;;8.80;99.90;;;;;;5070713;28;20036;-59
2021/12/30 03:46:26;;;;;;;39.05;9.40;;;8.60;99.90;;;;;;5070433;28;20564;-59
2021/12/30 03:48:52;;;;;;;32.78;9.52;;;;;;;;;;5070935;28;20051;-58
2021/12/30 03:51:24;;;;;;;42.17;9.90;;;;;;;;;;5069451;28;20457;-59
2021/12/30 03:53:52;;;;;;;50.78;10.95;;;;;;;;;;5070716;28;20041;-59
2021/12/30 03:56:21;;;;;;;43.30;9.70;;;8.60;99.90;;;;;;5070420;28;20047;-60
2021/12/30 03:58:47;;;;;;;39.45;10.50;;;;;;;;;;5070411;28;20037;-60
2021/12/30 04:01:15;;;;;;;46.00;9.00;;;;;;;;;;5070847;28;20044;-58
2021/12/30 04:03:41;;;;;;;44.95;10.45;;;;;;;;;;5070747;28;20076;-60
2021/12/30 04:06:07;;;;;;;37.65;10.52;;;;;;;;;;5070550;28;20039;-59
2021/12/30 04:08:33;;;;;;;48.78;9.98;;;;;;;;;;5070326;28;20537;-59
2021/12/30 04:10:59;;;;;;;48.53;10.27;;;;;;;;;;5070212;28;20083;-59
2021/12/30 04:13:26;;;;;;;45.15;10.05;;;;;;;;;;5070640;28;20033;-59
2021/12/30 04:15:52;;;;;;;54.50;11.82;;;;;;;;;;5069632;28;20050;-60
2021/12/30 04:18:18;;;;;;;63.80;13.13;;;;;;;;;;5069562;28;20052;-58
2021/12/30 04:20:46;;;;;;;50.05;10.73;;;;;;;;;;5070472;28;20045;-60
2021/12/30 04:23:12;;;;;;;41.72;10.50;;;9.10;99.90;;;;;;5069983;28;20076;-60
2021/12/30 04:25:38;;;;;;;34.38;9.73;;;;;;;;;;5069624;28;20112;-59
2021/12/30 04:28:04;;;;;;;45.85;9.80;;;9.30;99.90;;;;;;5068201;28;20040;-59
2021/12/30 04:30:30;;;;;;;48.63;11.48;;;9.30;99.90;;;;;;5069894;28;20115;-59
2021/12/30 04:32:56;;;;;;;47.55;10.88;;;;;;;;;;5069831;28;20086;-58
2021/12/30 04:35:22;;;;;;;39.00;9.43;;;;;;;;;;5069710;28;20040;-59
2021/12/30 04:37:48;;;;;;;41.88;11.10;;;9.50;99.90;;;;;;5069919;28;20044;-59
2021/12/30 04:40:14;;;;;;;53.70;12.50;;;9.60;99.90;;;;;;5070744;28;20155;-58
2021/12/30 04:42:41;;;;;;;46.03;11.73;;;9.30;99.90;;;;;;5070098;28;20052;-58
2021/12/30 04:45:10;;;;;;;47.58;11.55;;;9.40;99.90;;;;;;5068275;28;20040;-58
2021/12/30 04:47:38;;;;;;;50.63;12.32;;;;;;;;;;5070982;28;20040;-57
2021/12/30 04:50:06;;;;;;;47.65;12.25;;;9.30;99.90;;;;;;5072915;28;20040;-59
2021/12/30 04:52:32;;;;;;;50.28;13.05;;;9.80;99.90;;;;;;5072549;28;20044;-58
2021/12/30 04:54:58;;;;;;;41.10;11.52;;;9.50;99.90;;;;;;5072994;28;20035;-59
2021/12/30 04:57:23;;;;;;;50.20;12.00;;;9.70;99.90;;;;;;5073522;28;20086;-59
2021/12/30 04:59:49;;;;;;;51.13;13.98;;;;;;;;;;5073316;28;20407;-58
2021/12/30 05:02:15;;;;;;;48.58;13.95;;;;;;;;;;5073737;28;20056;-58
2021/12/30 05:04:41;;;;;;;52.60;14.55;;;;;;;;;;5073458;28;20040;-59
2021/12/30 05:07:07;;;;;;;64.60;17.08;;;;;;;;;;5072478;28;20036;-58
2021/12/30 05:09:34;;;;;;;54.03;15.77;;;;;;;;;;5073551;28;20102;-59
2021/12/30 05:12:00;;;;;;;61.45;16.27;;;;;;;;;;5071252;28;20112;-59
2021/12/30 05:14:26;;;;;;;63.22;17.50;;;;;;;;;;5072549;28;20060;-59
2021/12/30 05:16:53;;;;;;;70.45;18.75;;;;;;;;;;5073091;28;20445;-59
2021/12/30 05:19:19;;;;;;;71.75;19.67;;;9.50;99.90;;;;;;5073552;28;20040;-60
2021/12/30 05:21:45;;;;;;;65.85;21.27;;;;;;;;;;5071942;28;20447;-59
2021/12/30 05:24:11;;;;;;;65.65;20.23;;;;;;;;;;5071805;28;20052;-59
2021/12/30 05:26:37;;;;;;;74.20;22.63;;;;;;;;;;5067329;28;20111;-60
2021/12/30 05:29:04;;;;;;;70.75;21.83;;;;;;;;;;5067158;28;20506;-60
2021/12/30 05:31:31;;;;;;;77.28;24.40;;;;;;;;;;5072831;28;20040;-59
2021/12/30 05:33:56;;;;;;;79.13;22.65;;;9.80;99.90;;;;;;5059238;28;20076;-59
2021/12/30 05:36:22;;;;;;;63.00;21.55;;;9.80;99.90;;;;;;5061039;28;20103;-60
2021/12/30 05:38:48;;;;;;;64.57;23.30;;;9.40;99.90;;;;;;5073290;28;20044;-59
2021/12/30 05:41:14;;;;;;;64.22;21.75;;;;;;;;;;5073053;28;20070;-59
2021/12/30 05:43:40;;;;;;;65.28;22.55;;;;;;;;;;5067359;28;20557;-60
2021/12/30 05:46:06;;;;;;;68.47;24.05;;;;;;;;;;5042679;28;20530;-60
2021/12/30 05:48:32;;;;;;;68.13;22.85;;;;;;;;;;5041357;28;20042;-60
2021/12/30 05:51:02;;;;;;;66.78;25.00;;;;;;;;;;5041319;28;20040;-60
2021/12/30 05:53:29;;;;;;;64.60;24.85;;;;;;;;;;5055467;28;20048;-58
2021/12/30 05:55:55;;;;;;;79.78;24.52;;;;;;;;;;5054277;28;20048;-58
2021/12/30 05:58:21;;;;;;;74.05;26.08;;;;;;;;;;5054296;28;20574;-58
2021/12/30 06:00:48;;;;;;;86.20;26.10;;;;;;;;;;5054768;28;20120;-59
2021/12/30 06:03:15;;;;;;;76.75;26.88;;;10.80;99.90;;;;;;5054544;28;20044;-59
2021/12/30 06:05:41;;;;;;;79.53;26.88;;;10.20;99.90;;;;;;5055518;28;20072;-59
2021/12/30 06:08:06;;;;;;;81.95;24.27;;;10.30;99.90;;;;;;5054381;28;20071;-60
2021/12/30 06:10:32;;;;;;;70.70;25.85;;;10.30;99.90;;;;;;5036039;28;20053;-59
2021/12/30 06:12:58;;;;;;;82.97;26.58;;;;;;;;;;5053929;28;20061;-60
2021/12/30 06:15:24;;;;;;;75.25;27.05;;;;;;;;;;5061494;28;20040;-60
2021/12/30 06:17:50;;;;;;;88.20;27.42;;;;;;;;;;5060114;28;20036;-60
2021/12/30 06:20:16;;;;;;;70.13;22.92;;;;;;;;;;5066464;28;20164;-59
2021/12/30 06:22:43;;;;;;;63.88;21.48;;;;;;;;;;5071941;28;20040;-59
2021/12/30 06:25:09;;;;;;;59.50;22.05;;;;;;;;;;5071942;28;20040;-60
2021/12/30 06:27:35;;;;;;;57.95;20.73;;;;;;;;;;5071276;28;20514;-58
2021/12/30 06:30:01;;;;;;;54.17;18.75;;;;;;;;;;5072111;28;20675;-59
2021/12/30 06:32:27;;;;;;;55.75;19.33;;;;;;;;;;5071821;28;20048;-58
2021/12/30 06:34:53;;;;;;;67.18;21.48;;;;;;;;;;5071555;28;20037;-58
2021/12/30 06:37:19;;;;;;;59.30;20.65;;;10.70;99.90;;;;;;5072121;28;20045;-59
2021/12/30 06:39:44;;;;;;;52.03;18.60;;;;;;;;;;5072004;28;20036;-59
2021/12/30 06:42:10;;;;;;;52.45;18.77;;;10.70;99.90;;;;;;5071889;28;20414;-58
2021/12/30 06:44:36;;;;;;;49.70;18.33;;;;;;;;;;5071213;28;20096;-59
2021/12/30 06:47:04;;;;;;;48.58;17.27;;;;;;;;;;5071701;28;20067;-58
2021/12/30 06:49:35;;;;;;;49.25;18.10;;;;;;;;;;5072041;28;20193;-58
2021/12/30 06:52:02;;;;;;;54.65;18.30;;;;;;;;;;5071620;28;20076;-59
2021/12/30 06:54:28;;;;;;;50.42;16.75;;;10.90;99.90;;;;;;5069842;28;20059;-58
2021/12/30 06:56:55;;;;;;;43.40;15.55;;;;;;;;;;5071692;28;20399;-59
2021/12/30 06:59:21;;;;;;;46.60;17.95;;;;;;;;;;5071248;28;20490;-57
2021/12/30 07:01:47;;;;;;;44.33;16.80;;;;;;;;;;5053628;28;20040;-58
2021/12/30 07:04:14;;;;;;;40.80;16.90;;;;;;;;;;5042919;28;20037;-58
2021/12/30 07:06:41;;;;;;;40.03;14.57;;;;;;;;;;5070480;28;20141;-59
2021/12/30 07:09:07;;;;;;;38.33;15.23;;;;;;;;;;5071123;28;20355;-59
2021/12/30 07:11:33;;;;;;;33.03;13.82;;;;;;;;;;5071294;28;20130;-57
2021/12/30 07:13:59;;;;;;;32.83;12.02;;;11.00;99.90;;;;;;5071079;28;20036;-58
2021/12/30 07:16:25;;;;;;;32.92;13.07;;;11.00;99.90;;;;;;5059651;28;20041;-59
2021/12/30 07:18:51;;;;;;;31.30;12.60;;;;;;;;;;5059739;28;20044;-58
2021/12/30 07:21:17;;;;;;;33.42;12.75;;;;;;;;;;5062795;28;20610;-55
2021/12/30 07:23:43;;;;;;;30.00;12.75;;;;;;;;;;5071223;28;20051;-59
2021/12/30 07:26:09;;;;;;;28.92;11.68;;;;;;;;;;5070577;28;20040;-56
2021/12/30 07:28:35;;;;;;;23.55;10.98;;;;;;;;;;5071503;28;20513;-59
2021/12/30 07:31:00;;;;;;;28.95;11.65;;;11.10;99.90;;;;;;5071055;28;20044;-58
2021/12/30 07:33:26;;;;;;;26.42;10.68;;;11.20;99.90;;;;;;5071000;28;20040;-57
2021/12/30 07:35:52;;;;;;;26.35;11.40;;;;;;;;;;5070618;28;20041;-58
2021/12/30 07:38:18;;;;;;;32.78;11.93;;;;;;;;;;5071089;28;20047;-55
2021/12/30 07:43:12;;;;;;;27.30;10.73;;;;;;;;;;5068579;28;20055;-60
2021/12/30 07:45:38;;;;;;;31.45;12.35;;;;;;;;;;5070766;28;20041;-60
2021/12/30 07:48:03;;;;;;;28.27;10.90;;;11.20;99.90;;;;;;5055384;28;20503;-60
2021/12/30 07:50:29;;;;;;;22.67;10.20;;;11.10;99.90;;;;;;5051246;28;20041;-61
2021/12/30 07:52:55;;;;;;;31.08;13.95;;;;;;;;;;5051171;28;20124;-60
2021/12/30 07:55:21;;;;;;;22.85;10.57;;;;;;;;;;5050450;28;20130;-60
2021/12/30 07:57:47;;;;;;;28.85;11.23;;;;;;;;;;5050564;28;20094;-61
2021/12/30 08:00:16;;;;;;;21.80;10.20;;;11.30;99.90;;;;;;5051446;28;20087;-60
2021/12/30 08:02:43;;;;;;;24.38;10.25;;;11.20;99.90;;;;;;5051100;28;20033;-61
2021/12/30 08:05:16;;;;;;;21.95;10.13;;;11.20;99.90;;;;;;5041609;28;20045;-61
2021/12/30 08:07:45;;;;;;;25.17;10.20;;;11.00;99.90;;;;;;5040735;28;20037;-61
2021/12/30 08:10:14;;;;;;;29.73;10.80;;;;;;;;;;5053674;28;20378;-61
2021/12/30 08:12:41;;;;;;;28.48;10.55;;;11.10;99.90;;;;;;5052348;28;20048;-61
2021/12/30 08:15:07;;;;;;;24.00;9.25;;;11.20;99.90;;;;;;5050496;28;20513;-60
2021/12/30 08:17:34;;;;;;;27.02;9.23;;;11.30;99.90;;;;;;5053307;28;20037;-60
2021/12/30 08:19:59;;;;;;;25.20;8.15;;;11.20;99.90;;;;;;5052528;28;20031;-61
2021/12/30 08:22:25;;;;;;;23.77;7.88;;;11.20;99.90;;;;;;5053380;28;20144;-60
2021/12/30 08:24:51;;;;;;;28.67;7.45;;;;;;;;;;5056504;28;20041;-63
2021/12/30 08:27:17;;;;;;;24.40;8.23;;;;;;;;;;5056702;28;20410;-60
2021/12/30 08:29:43;;;;;;;25.65;8.35;;;11.30;99.90;;;;;;5064293;28;20029;-60
2021/12/30 08:32:11;;;;;;;26.35;7.30;;;;;;;;;;5054205;28;20044;-60
2021/12/30 08:34:37;;;;;;;25.50;7.13;;;;;;;;;;5043851;28;20476;-60
2021/12/30 08:37:03;;;;;;;21.73;6.50;;;;;;;;;;5040916;28;20038;-61
2021/12/30 08:39:29;;;;;;;26.35;8.32;;;11.30;99.90;;;;;;5040026;28;20052;-60
2021/12/30 08:41:56;;;;;;;33.63;7.10;;;;;;;;;;5041022;28;20038;-60
2021/12/30 08:44:24;;;;;;;20.92;6.28;;;;;;;;;;5046807;28;20067;-60
2021/12/30 08:46:50;;;;;;;20.58;5.90;;;;;;;;;;5037546;28;20381;-59
2021/12/30 08:49:16;;;;;;;14.63;4.18;;;;;;;;;;5036765;28;20041;-62
2021/12/30 08:51:42;;;;;;;21.85;4.85;;;11.50;99.90;;;;;;5053183;28;20036;-61
2021/12/30 08:54:08;;;;;;;19.85;5.13;;;;;;;;;;5069014;28;20486;-59
2021/12/30 08:56:34;;;;;;;21.92;5.07;;;11.40;99.90;;;;;;5072890;28;20040;-60
2021/12/30 08:58:59;;;;;;;23.35;5.43;;;11.70;99.90;;;;;;5060640;28;20036;-60
2021/12/30 09:01:27;;;;;;;22.88;6.13;;;11.50;99.90;;;;;;5054430;28;20073;-60
2021/12/30 09:03:52;;;;;;;27.20;5.60;;;11.40;99.90;;;;;;5061596;28;20509;-61
2021/12/30 09:06:18;;;;;;;21.25;5.00;;;;;;;;;;5064998;28;20036;-61
2021/12/30 09:08:44;;;;;;;18.80;4.97;;;11.60;99.90;;;;;;5074190;28;20040;-61
2021/12/30 09:11:10;;;;;;;29.48;5.70;;;;;;;;;;5073056;28;20037;-61
2021/12/30 09:13:36;;;;;;;22.35;5.10;;;;;;;;;;5073610;28;20156;-62
2021/12/30 09:16:02;;;;;;;22.20;4.90;;;11.40;99.90;;;;;;5073585;28;20058;-60
2021/12/30 09:18:28;;;;;;;17.88;4.15;;;;;;;;;;5074039;28;20047;-62
2021/12/30 09:20:54;;;;;;;19.60;5.18;;;;;;;;;;5073924;28;20903;-61
2021/12/30 09:23:20;;;;;;;18.85;5.72;;;11.40;99.90;;;;;;5073657;28;20044;-61
2021/12/30 09:25:46;;;;;;;21.90;4.40;;;;;;;;;;5072823;28;20049;-62
2021/12/30 09:28:12;;;;;;;18.50;4.72;;;11.30;99.90;;;;;;5073782;28;20048;-61
2021/12/30 09:30:39;;;;;;;18.58;4.78;;;;;;;;;;5073821;28;20040;-61
2021/12/30 09:33:06;;;;;;;16.98;4.68;;;;;;;;;;5073226;28;20070;-62
2021/12/30 09:35:32;;;;;;;18.90;4.45;;;;;;;;;;5072922;28;20098;-61
2021/12/30 09:37:58;;;;;;;13.15;4.10;;;;;;;;;;5073410;28;20070;-62
2021/12/30 09:40:25;;;;;;;18.33;4.07;;;11.50;99.90;;;;;;5073243;28;20048;-62
2021/12/30 09:42:53;;;;;;;13.75;4.15;;;;;;;;;;5073342;28;20036;-62
2021/12/30 09:45:19;;;;;;;14.82;4.20;;;;;;;;;;5072445;28;20058;-62
2021/12/30 09:47:47;;;;;;;17.70;4.45;;;;;;;;;;5073708;28;20068;-62
2021/12/30 09:50:14;;;;;;;22.63;4.97;;;;;;;;;;5073198;28;20059;-62
2021/12/30 09:52:39;;;;;;;19.05;5.05;;;11.60;99.90;;;;;;5072947;28;20044;-62
2021/12/30 09:55:06;;;;;;;21.02;5.00;;;11.70;99.90;;;;;;5072716;28;20032;-62
2021/12/30 09:57:32;;;;;;;18.83;4.28;;;11.60;99.90;;;;;;5072960;28;20422;-62
2021/12/30 09:59:58;;;;;;;19.02;4.78;;;;;;;;;;5072576;28;20029;-62
2021/12/30 10:02:23;;;;;;;18.05;5.35;;;11.70;99.90;;;;;;5071644;28;20075;-62
2021/12/30 10:05:01;;;;;;;14.38;4.85;;;;;;;;;;5072552;28;20119;-62
2021/12/30 10:07:27;;;;;;;20.48;4.95;;;11.80;99.90;;;;;;5072583;28;20041;-62
2021/12/30 10:09:59;;;;;;;17.95;4.55;;;;;;;;;;5072688;28;20506;-62
2021/12/30 10:12:39;;;;;;;26.30;5.20;;;11.70;99.90;;;;;;5072733;28;20036;-62
2021/12/30 10:15:06;;;;;;;28.45;4.30;;;11.60;99.90;;;;;;5053431;28;20095;-62
2021/12/30 10:17:32;;;;;;;17.30;4.55;;;11.70;99.90;;;;;;5053386;28;20044;-62
2021/12/30 10:20:24;;;;;;;26.75;5.82;;;11.40;99.90;;;;;;5065576;28;20410;-62
2021/12/30 10:22:50;;;;;;;21.95;4.25;;;11.80;99.90;;;;;;5061043;28;20056;-62
2021/12/30 10:25:31;;;;;;;25.20;4.63;;;11.20;99.90;;;;;;5032158;28;20044;-61
2021/12/30 10:28:16;;;;;;;27.30;6.30;;;;;;;;;;5032020;28;20399;-62
2021/12/30 10:30:42;;;;;;;19.33;5.30;;;;;;;;;;5033046;28;20037;-61
2021/12/30 10:33:12;;;;;;;22.27;6.05;;;;;;;;;;5049824;28;20071;-61
2021/12/30 10:35:38;;;;;;;19.65;5.05;;;;;;;;;;5049081;28;20076;-61
2021/12/30 10:38:09;;;;;;;35.60;6.38;;;;;;;;;;5054206;28;20124;-62
2021/12/30 10:40:37;;;;;;;33.30;5.82;;;;;;;;;;5054190;28;20115;-62
2021/12/30 10:43:13;;;;;;;24.42;4.97;;;11.80;99.90;;;;;;5054286;28;20099;-61
2021/12/30 10:45:39;;;;;;;28.80;7.75;;;11.30;99.90;;;;;;5053078;28;20141;-61
2021/12/30 10:48:08;;;;;;;32.67;7.05;;;11.60;99.90;;;;;;5052906;28;20033;-62
2021/12/30 10:50:34;;;;;;;28.08;8.90;;;11.70;99.90;;;;;;5053865;28;20068;-61
2021/12/30 10:53:00;;;;;;;33.22;7.05;;;11.90;99.90;;;;;;5052680;28;20068;-61
2021/12/30 10:55:26;;;;;;;27.20;7.40;;;;;;;;;;5053470;28;20435;-61
2021/12/30 10:57:52;;;;;;;25.83;7.72;;;;;;;;;;5055887;28;20094;-61
2021/12/30 11:00:32;;;;;;;27.45;7.22;;;11.60;99.90;;;;;;5055308;28;20384;-61
2021/12/30 11:03:18;;;;;;;30.52;7.78;;;;;;;;;;5051489;28;20093;-61
2021/12/30 11:06:11;;;;;;;30.67;7.30;;;11.70;99.90;;;;;;5037057;28;20053;-61
2021/12/30 11:08:37;;;;;;;27.80;7.07;;;11.80;99.90;;;;;;5051787;28;20071;-61
2021/12/30 11:11:25;;;;;;;17.27;4.70;;;11.40;99.90;;;;;;5051360;28;20064;-61
2021/12/30 11:13:58;;;;;;;33.72;8.18;;;;;;;;;;5051792;28;20063;-61
2021/12/30 11:16:24;;;;;;;28.65;7.63;;;11.80;99.90;;;;;;5051130;28;20041;-61
2021/12/30 11:18:49;;;;;;;29.83;7.25;;;;;;;;;;5051595;28;20037;-61
2021/12/30 11:21:51;;;;;;;27.73;7.53;;;11.60;99.90;;;;;;5051615;28;20087;-61
2021/12/30 11:24:18;;;;;;;34.30;8.90;;;;;;;;;;4989719;28;20181;-61
2021/12/30 11:26:44;;;;;;;25.95;8.13;;;;;;;;;;5039076;28;20053;-61
2021/12/30 11:29:10;;;;;;;29.38;8.50;;;;;;;;;;5051397;28;20117;-61
2021/12/30 11:31:36;;;;;;;37.83;7.72;;;;;;;;;;5050544;28;20049;-61
2021/12/30 11:34:03;;;;;;;39.22;7.53;;;12.20;99.90;;;;;;5046197;28;20037;-62
2021/12/30 11:36:29;;;;;;;28.55;8.02;;;11.80;99.90;;;;;;5062616;28;20130;-62
2021/12/30 11:38:57;;;;;;;31.17;6.65;;;;;;;;;;5071420;28;20032;-61
2021/12/30 11:41:24;;;;;;;30.80;9.77;;;;;;;;;;5069765;28;20044;-61
2021/12/30 11:43:51;;;;;;;26.50;7.65;;;;;;;;;;5071267;28;20052;-61
2021/12/30 11:46:35;;;;;;;33.38;7.88;;;;;;;;;;5070996;28;20162;-62
2021/12/30 11:49:02;;;;;;;27.85;6.97;;;;;;;;;;5055331;28;20344;-61
2021/12/30 11:51:41;;;;;;;36.10;6.43;;;;;;;;;;5060448;28;20166;-63
2021/12/30 11:54:39;;;;;;;28.08;7.55;;;;;;;;;;5071222;28;20041;-61
2021/12/30 11:57:24;;;;;;;33.47;7.72;;;;;;;;;;5028535;28;20127;-62
2021/12/30 11:59:50;;;;;;;34.15;9.50;;;;;;;;;;5074956;28;20037;-62
2021/12/30 12:02:35;;;;;;;33.55;7.22;;;11.60;99.90;;;;;;5074626;28;20509;-62
2021/12/30 12:05:19;;;;;;;;;;;12.40;99.90;;;;;;5075764;28;20048;-61
2021/12/30 12:08:04;;;;;;;24.15;8.00;;;12.20;99.90;;;;;;5074904;28;19920;-62
2021/12/30 12:10:30;;;;;;;34.65;7.90;;;11.80;99.90;;;;;;5075123;28;20045;-62
2021/12/30 12:12:55;;;;;;;23.20;6.80;;;11.90;99.90;;;;;;5075357;28;20427;-62
2021/12/30 12:15:21;;;;;;;25.20;6.60;;;;;;;;;;5073588;28;20149;-62
2021/12/30 12:17:47;;;;;;;27.55;7.68;;;;;;;;;;5063548;28;20130;-62
2021/12/30 12:20:15;;;;;;;29.85;6.32;;;;;;;;;;5055806;28;20067;-61
2021/12/30 12:22:42;;;;;;;27.92;7.28;;;;;;;;;;5057657;28;20044;-62
2021/12/30 12:25:22;;;;;;;23.58;6.28;;;;;;;;;;5061269;28;20147;-62
2021/12/30 12:27:50;;;;;;;29.00;6.47;;;11.80;99.90;;;;;;5054533;28;20495;-62
2021/12/30 12:30:34;;;;;;;24.77;6.47;;;11.80;99.90;;;;;;5054659;28;20052;-62
2021/12/30 12:33:20;;;;;;;30.20;8.90;;;;;;;;;;5054789;28;20041;-62
2021/12/30 12:35:46;;;;;;;27.77;7.47;;;;;;;;;;5053928;28;20507;-62
2021/12/30 12:38:12;;;;;;;26.73;6.07;;;12.00;99.90;;;;;;5070094;28;20093;-62
2021/12/30 12:40:53;;;;;;;25.58;6.40;;;;;;;;;;5054164;28;20499;-62
2021/12/30 12:43:31;;;;;;;29.70;6.55;;;;;;;;;;5054232;28;20127;-62
2021/12/30 12:45:59;;;;;;;28.35;7.78;;;11.40;99.90;;;;;;5053954;28;20056;-62
2021/12/30 12:48:27;;;;;;;29.42;5.72;;;;;;;;;;5054438;28;20064;-61
2021/12/30 12:51:02;;;;;;;26.30;6.30;;;12.50;99.90;;;;;;5054104;28;20134;-62
2021/12/30 12:53:31;;;;;;;28.58;6.30;;;;;;;;;;5069520;28;20495;-62
2021/12/30 12:56:15;;;;;;;23.10;7.20;;;;;;;;;;5054105;28;20048;-62
2021/12/30 12:58:48;;;;;;;25.27;6.18;;;;;;;;;;5054253;28;20073;-62
2021/12/30 13:01:17;;;;;;;25.88;6.32;;;12.00;99.90;;;;;;5053942;28;20040;-61
2021/12/30 13:03:43;;;;;;;27.23;5.68;;;11.70;99.90;;;;;;5052618;28;20028;-62
2021/12/30 13:06:11;;;;;;;27.90;6.78;;;;;;;;;;5053476;28;20037;-62
2021/12/30 13:08:39;;;;;;;30.27;7.63;;;;;;;;;;5052977;28;20072;-62
2021/12/30 13:11:07;;;;;;;25.48;7.13;;;11.20;99.90;;;;;;5053969;28;20037;-62
2021/12/30 13:13:35;;;;;;;37.13;7.25;;;;;;;;;;5053764;28;20040;-62
2021/12/30 13:16:03;;;;;;;19.40;6.13;;;;;;;;;;5053186;28;20434;-62
2021/12/30 13:18:30;;;;;;;27.88;6.32;;;;;;;;;;5054076;28;20491;-62
2021/12/30 13:20:57;;;;;;;34.55;6.38;;;11.60;99.90;;;;;;5048741;28;20522;-62
2021/12/30 13:23:33;;;;;;;25.00;7.25;;;12.40;99.90;;;;;;5054675;28;20043;-61
2021/12/30 13:26:02;;;;;;;30.40;7.63;;;11.70;99.90;;;;;;5058170;28;20033;-62
2021/12/30 13:28:28;;;;;;;28.58;6.28;;;;;;;;;;5051830;28;20053;-62
2021/12/30 13:31:05;;;;;;;27.88;6.75;;;;;;;;;;5052892;28;20071;-62
2021/12/30 13:33:31;;;;;;;28.83;6.40;;;;;;;;;;5059343;28;20036;-62
2021/12/30 13:35:57;;;;;;;27.38;7.00;;;;;;;;;;5042593;28;20034;-62
2021/12/30 13:38:25;;;;;;;18.98;8.13;;;11.90;99.90;;;;;;5039090;28;20095;-62
2021/12/30 13:40:50;;;;;;;30.90;7.30;;;11.80;99.90;;;;;;5039539;28;20056;-62
2021/12/30 13:43:25;;;;;;;26.40;7.95;;;;;;;;;;5038105;28;20033;-62
2021/12/30 13:45:53;;;;;;;33.63;7.68;;;;;;;;;;5047955;28;20044;-61
2021/12/30 13:48:30;;;;;;;36.08;9.15;;;12.40;99.90;;;;;;5058140;28;20052;-62
2021/12/30 13:51:00;;;;;;;29.33;8.73;;;11.70;99.90;;;;;;5057700;28;20036;-62
2021/12/30 13:53:27;;;;;;;27.52;7.68;;;;;;;;;;5050909;28;20411;-62
2021/12/30 13:55:55;;;;;;;28.55;7.65;;;;;;;;;;5055246;28;20097;-62
2021/12/30 13:58:29;;;;;;;25.85;7.53;;;;;;;;;;5055992;28;20041;-62